Terminal Aerodrome Forecast
Issued by NWS Rapid City, SD

Home | Current Version | Previous Version | Text Only | Print | Product List | Glossary On
Versions: 1 2 3 4 5 6 7 8 9 10 11 12 13 14 15 16
766
FTUS43 KUNR 220750 AAA
TAFRAP
TAF AMD
KRAP 220750Z 2208/2306 14005KT P6SM OVC150
     FM221800 32018G28KT P6SM BKN150
     FM230000 32007KT P6SM SCT200=

USA.gov is the U.S. government's official web portal to all federal, state and local government web resources and services.